createdAt,value
2018-04-19T00:00:12.909Z,29.23
2018-04-19T00:02:40.482Z,30.33
2018-04-19T00:05:08.063Z,28.67
2018-04-19T00:07:35.803Z,30.43
2018-04-19T00:10:03.344Z,32.03
2018-04-19T00:12:30.898Z,31.27
2018-04-19T00:14:59.220Z,31.50
2018-04-19T00:17:26.869Z,31.13
2018-04-19T00:19:54.533Z,31.97
2018-04-19T00:22:22.109Z,31.73
2018-04-19T00:24:49.659Z,32.27
2018-04-19T00:27:17.214Z,31.87
2018-04-19T00:29:44.762Z,30.13
2018-04-19T00:32:12.293Z,31.37
2018-04-19T00:34:40.619Z,32.07
2018-04-19T00:37:08.169Z,31.93
2018-04-19T00:39:35.718Z,30.50
2018-04-19T00:42:03.289Z,31.17
2018-04-19T00:44:30.835Z,32.00
2018-04-19T00:46:58.401Z,32.13
2018-04-19T00:49:25.971Z,32.60
2018-04-19T00:51:53.563Z,32.03
2018-04-19T00:54:21.075Z,31.47
2018-04-19T00:56:48.612Z,32.60
2018-04-19T00:59:16.216Z,32.93
2018-04-19T01:01:43.756Z,33.23
2018-04-19T01:04:11.289Z,34.00
2018-04-19T01:06:38.833Z,33.50
2018-04-19T01:09:06.480Z,33.23
2018-04-19T01:11:34.018Z,34.07
2018-04-19T01:14:01.672Z,34.73
2018-04-19T01:16:29.289Z,34.17
2018-04-19T01:18:56.832Z,36.07
2018-04-19T01:21:24.381Z,34.43
2018-04-19T01:23:52.694Z,33.87
2018-04-19T01:26:20.243Z,35.07
2018-04-19T01:28:47.782Z,36.33
2018-04-19T01:31:15.369Z,35.43
2018-04-19T01:33:42.930Z,34.70
2018-04-19T01:36:22.279Z,35.07
2018-04-19T01:38:49.830Z,34.90
2018-04-19T01:41:17.388Z,35.40
2018-04-19T01:43:44.916Z,35.40
2018-04-19T01:46:13.248Z,35.03
2018-04-19T01:48:40.820Z,35.40
2018-04-19T01:51:08.508Z,34.93
2018-04-19T01:53:36.092Z,35.07
2018-04-19T01:56:03.622Z,34.70
2018-04-19T01:58:31.195Z,35.63
2018-04-19T02:00:59.500Z,36.50
2018-04-19T02:03:27.032Z,36.40
2018-04-19T02:05:54.584Z,37.20
2018-04-19T02:08:22.882Z,36.00
2018-04-19T02:10:50.424Z,36.03
2018-04-19T02:13:17.950Z,36.57
2018-04-19T02:15:45.532Z,36.83
2018-04-19T02:18:13.928Z,36.13
2018-04-19T02:20:41.502Z,34.60
2018-04-19T02:23:09.021Z,36.53
2018-04-19T02:25:36.606Z,37.53
2018-04-19T02:28:04.164Z,37.87
2018-04-19T02:30:31.848Z,37.20
2018-04-19T02:32:59.364Z,38.53
2018-04-19T02:35:26.926Z,37.17
2018-04-19T02:37:54.498Z,38.40
2018-04-19T02:40:22.076Z,36.90
2018-04-19T02:42:49.650Z,36.73
2018-04-19T02:45:17.218Z,37.97
2018-04-19T02:47:44.843Z,38.43
2018-04-19T02:50:12.408Z,39.30
2018-04-19T02:52:40.026Z,37.10
2018-04-19T02:55:07.581Z,40.43
2018-04-19T02:57:35.117Z,38.03
2018-04-19T03:00:02.650Z,37.83
2018-04-19T03:02:30.235Z,38.67
2018-04-19T03:04:57.754Z,38.10
2018-04-19T03:07:25.291Z,37.83
2018-04-19T03:09:52.839Z,36.90
2018-04-19T03:12:20.404Z,36.60
2018-04-19T03:14:48.005Z,37.63
2018-04-19T03:17:15.528Z,37.93
2018-04-19T03:19:43.878Z,38.37
2018-04-19T03:22:11.435Z,40.17
2018-04-19T03:24:38.941Z,39.23
2018-04-19T03:27:07.261Z,39.07
2018-04-19T03:29:34.810Z,38.73
2018-04-19T03:32:02.512Z,40.40
2018-04-19T03:34:30.016Z,39.20
2018-04-19T03:36:57.565Z,38.63
2018-04-19T03:39:25.145Z,39.53
2018-04-19T03:41:52.720Z,40.93
2018-04-19T03:44:20.222Z,40.77
2018-04-19T03:46:48.509Z,40.93
2018-04-19T03:49:16.844Z,41.57
2018-04-19T03:51:44.364Z,39.50
2018-04-19T03:54:11.919Z,38.33
2018-04-19T03:56:39.452Z,40.37
2018-04-19T03:59:07.834Z,39.53
2018-04-19T04:01:35.499Z,40.37
2018-04-19T04:04:03.070Z,39.93
2018-04-19T04:06:30.634Z,39.57
2018-04-19T04:08:58.608Z,37.90
2018-04-19T04:11:27.023Z,40.50
2018-04-19T04:13:54.562Z,39.47
2018-04-19T04:16:33.909Z,38.00
2018-04-19T04:19:13.398Z,37.03
2018-04-19T04:24:44.239Z,39.20
2018-04-19T04:27:11.797Z,40.83
2018-04-19T04:29:39.355Z,41.00
2018-04-19T04:32:06.911Z,39.83
2018-04-19T04:34:34.446Z,40.70
2018-04-19T04:37:02.025Z,41.43
2018-04-19T04:39:29.564Z,39.53
2018-04-19T04:41:57.109Z,38.40
2018-04-19T04:44:24.741Z,38.57
2018-04-19T04:46:52.262Z,37.87
2018-04-19T04:49:19.786Z,35.00
2018-04-19T04:51:47.314Z,34.33
2018-04-19T04:54:14.827Z,34.97
2018-04-19T04:56:42.414Z,36.97
2018-04-19T04:59:09.937Z,33.90
2018-04-19T05:01:37.469Z,32.97
2018-04-19T05:04:05.004Z,32.03
2018-04-19T05:06:33.384Z,32.93
2018-04-19T05:09:01.704Z,30.30
2018-04-19T05:11:29.305Z,30.53
2018-04-19T05:13:56.845Z,30.07
2018-04-19T05:16:24.355Z,29.30
2018-04-19T05:18:51.879Z,32.27
2018-04-19T05:21:20.185Z,32.63
2018-04-19T05:23:47.726Z,29.73
2018-04-19T05:26:16.098Z,29.83
2018-04-19T05:28:43.607Z,29.97
2018-04-19T05:31:11.161Z,29.20
2018-04-19T05:33:38.701Z,29.67
2018-04-19T05:36:06.308Z,29.40
2018-04-19T05:38:33.815Z,28.40
2018-04-19T05:41:01.356Z,27.57
2018-04-19T05:43:28.911Z,28.77
2018-04-19T05:45:57.233Z,27.57
2018-04-19T05:48:24.735Z,29.83
2018-04-19T05:50:52.264Z,27.97
2018-04-19T05:53:20.543Z,28.27
2018-04-19T05:55:48.063Z,27.17
2018-04-19T05:58:15.642Z,27.97
2018-04-19T06:00:43.179Z,25.20
2018-04-19T06:03:10.788Z,26.43
2018-04-19T06:05:38.307Z,25.20
2018-04-19T06:08:05.856Z,24.73
2018-04-19T06:10:33.461Z,23.47
2018-04-19T06:13:00.998Z,24.03
2018-04-19T06:15:28.555Z,22.80
2018-04-19T06:17:56.102Z,21.67
2018-04-19T06:20:23.648Z,22.40
2018-04-19T06:22:51.184Z,18.67
2018-04-19T06:25:19.551Z,19.87
2018-04-19T06:27:47.106Z,19.30
2018-04-19T06:30:14.615Z,18.70
2018-04-19T06:32:42.457Z,18.67
2018-04-19T06:35:10.254Z,17.73
2018-04-19T06:37:37.862Z,16.90
2018-04-19T06:40:05.373Z,16.63
2018-04-19T06:42:32.952Z,16.43
2018-04-19T06:45:00.506Z,15.40
2018-04-19T06:47:28.041Z,16.73
2018-04-19T06:49:55.579Z,16.10
2018-04-19T06:52:23.140Z,14.70
2018-04-19T06:54:50.695Z,15.73
2018-04-19T06:57:18.258Z,16.70
2018-04-19T06:59:45.841Z,15.33
2018-04-19T07:02:13.380Z,14.57
2018-04-19T07:04:40.932Z,15.00
2018-04-19T07:07:09.251Z,14.60
2018-04-19T07:09:36.851Z,14.77
2018-04-19T07:12:04.450Z,15.30
2018-04-19T07:14:32.002Z,13.10
2018-04-19T07:16:59.534Z,14.67
2018-04-19T07:19:27.872Z,14.23
2018-04-19T07:21:55.405Z,13.63
2018-04-19T07:24:22.949Z,13.80
2018-04-19T07:26:50.469Z,13.70
2018-04-19T07:29:18.038Z,13.43
2018-04-19T07:31:46.712Z,13.10
2018-04-19T07:34:14.254Z,14.43
2018-04-19T07:36:41.758Z,12.47
2018-04-19T07:39:09.354Z,14.10
2018-04-19T07:41:36.958Z,12.83
2018-04-19T07:44:05.368Z,13.53
2018-04-19T07:46:32.951Z,14.10
2018-04-19T07:49:00.632Z,12.43
2018-04-19T07:51:28.184Z,13.43
2018-04-19T07:53:55.694Z,14.03
2018-04-19T07:56:23.227Z,14.40
2018-04-19T07:58:50.731Z,14.50
2018-04-19T08:01:18.292Z,14.70
2018-04-19T08:03:45.808Z,13.40
2018-04-19T08:06:14.163Z,14.20
2018-04-19T08:08:42.482Z,14.00
2018-04-19T08:11:10.785Z,13.23
2018-04-19T08:13:38.332Z,13.60
2018-04-19T08:16:05.853Z,14.80
2018-04-19T08:18:34.153Z,14.33
2018-04-19T08:21:01.675Z,14.90
2018-04-19T08:23:30.010Z,13.47
2018-04-19T08:25:57.567Z,14.20
2018-04-19T08:28:25.108Z,14.20
2018-04-19T08:30:52.632Z,14.83
2018-04-19T08:33:20.156Z,13.27
2018-04-19T08:35:47.702Z,14.53
2018-04-19T08:38:15.241Z,14.00
2018-04-19T08:40:42.822Z,14.43
2018-04-19T08:43:10.408Z,13.93
2018-04-19T08:45:37.940Z,13.73
2018-04-19T08:48:05.522Z,13.60
2018-04-19T08:50:33.097Z,13.93
2018-04-19T08:53:00.668Z,15.90
2018-04-19T08:55:28.240Z,15.33
2018-04-19T08:57:55.784Z,14.73
2018-04-19T09:00:23.325Z,14.17
2018-04-19T09:02:50.849Z,14.30
2018-04-19T09:05:18.510Z,14.53
2018-04-19T09:07:46.284Z,14.37
2018-04-19T09:10:13.839Z,14.67
2018-04-19T09:12:41.437Z,14.27
2018-04-19T09:15:09.047Z,14.77
2018-04-19T09:17:36.598Z,13.87
2018-04-19T09:20:04.190Z,13.73
2018-04-19T09:22:31.756Z,15.20
2018-04-19T09:24:59.322Z,13.90
2018-04-19T09:27:26.842Z,13.77
2018-04-19T09:29:54.390Z,13.03
2018-04-19T09:32:21.963Z,12.90
2018-04-19T09:34:49.574Z,13.97
2018-04-19T09:37:18.070Z,14.10
2018-04-19T09:39:45.600Z,13.20
2018-04-19T09:42:13.140Z,13.47
2018-04-19T09:44:40.735Z,12.60
2018-04-19T09:47:08.342Z,13.13
2018-04-19T09:49:35.894Z,13.03
2018-04-19T09:52:03.559Z,12.80
2018-04-19T09:54:31.100Z,14.03
2018-04-19T09:56:58.644Z,13.40
2018-04-19T09:59:26.960Z,12.43
2018-04-19T10:02:00.084Z,13.30
2018-04-19T10:04:30.424Z,14.00
2018-04-19T10:06:57.986Z,13.50
2018-04-19T10:09:25.593Z,14.30
2018-04-19T10:11:53.147Z,14.47
2018-04-19T10:14:20.716Z,13.73
2018-04-19T10:16:48.268Z,14.97
2018-04-19T10:19:15.824Z,13.67
2018-04-19T10:21:43.382Z,13.43
2018-04-19T10:24:11.051Z,13.13
2018-04-19T10:26:38.565Z,13.10
2018-04-19T10:29:06.878Z,14.60
2018-04-19T10:31:34.414Z,14.00
2018-04-19T10:34:02.019Z,13.63
2018-04-19T10:36:29.580Z,14.47
2018-04-19T10:38:57.151Z,14.23
2018-04-19T10:41:24.722Z,13.20
2018-04-19T10:43:52.252Z,13.77
2018-04-19T10:46:19.803Z,12.43
2018-04-19T10:48:47.353Z,14.10
2018-04-19T10:51:14.909Z,11.70
2018-04-19T10:53:42.481Z,11.93
2018-04-19T10:56:10.048Z,12.10
2018-04-19T10:58:37.622Z,11.10
2018-04-19T11:01:05.199Z,11.13
2018-04-19T11:03:32.797Z,11.53
2018-04-19T11:06:00.374Z,9.77
2018-04-19T11:08:27.930Z,10.97
2018-04-19T11:10:55.458Z,11.17
2018-04-19T11:13:23.747Z,10.70
2018-04-19T11:15:51.337Z,8.87
2018-04-19T11:18:18.947Z,9.97
2018-04-19T11:20:46.474Z,10.63
2018-04-19T11:23:14.055Z,10.13
2018-04-19T11:25:41.605Z,9.43
2018-04-19T11:28:09.157Z,9.23
2018-04-19T11:30:36.765Z,10.37
2018-04-19T11:33:04.327Z,8.20
2018-04-19T11:35:31.907Z,8.90
2018-04-19T11:37:59.449Z,7.83
2018-04-19T11:40:26.979Z,7.97
2018-04-19T11:42:55.313Z,9.67
2018-04-19T11:45:22.869Z,10.17
2018-04-19T11:47:50.432Z,9.47
2018-04-19T11:50:18.028Z,9.23
2018-04-19T11:52:46.368Z,10.03
2018-04-19T11:55:13.921Z,8.13
2018-04-19T11:57:41.515Z,6.50
2018-04-19T12:00:09.093Z,6.30
2018-04-19T12:02:37.400Z,6.60
2018-04-19T12:05:04.949Z,6.13
2018-04-19T12:07:32.520Z,7.37
2018-04-19T12:10:00.063Z,6.00
2018-04-19T12:12:27.605Z,7.43
2018-04-19T12:14:55.209Z,7.63
2018-04-19T12:17:22.755Z,6.63
2018-04-19T12:19:50.447Z,6.77
2018-04-19T12:22:18.007Z,5.93
2018-04-19T12:24:46.425Z,5.90
2018-04-19T12:27:14.780Z,6.03
2018-04-19T12:29:42.316Z,5.40
2018-04-19T12:32:09.879Z,6.70
2018-04-19T12:34:37.486Z,7.27
2018-04-19T12:37:05.918Z,6.80
2018-04-19T12:39:33.469Z,6.93
2018-04-19T12:42:00.992Z,6.50
2018-04-19T12:44:29.368Z,6.47
2018-04-19T12:46:56.927Z,6.67
2018-04-19T12:49:25.324Z,6.93
2018-04-19T12:51:52.886Z,6.37
2018-04-19T12:54:20.460Z,6.87
2018-04-19T12:56:47.996Z,5.67
2018-04-19T12:59:15.938Z,5.03
2018-04-19T13:01:43.504Z,5.47
2018-04-19T13:04:11.104Z,5.23
2018-04-19T13:06:38.669Z,5.40
2018-04-19T13:09:06.256Z,5.33
2018-04-19T13:11:33.842Z,5.17
2018-04-19T13:14:02.133Z,4.80
2018-04-19T13:16:29.686Z,4.77
2018-04-19T13:18:57.276Z,4.93
2018-04-19T13:21:24.860Z,4.80
2018-04-19T13:23:52.434Z,3.80
2018-04-19T13:26:19.959Z,4.00
2018-04-19T13:28:47.531Z,4.00
2018-04-19T13:31:15.053Z,5.00
2018-04-19T13:33:42.622Z,5.30
2018-04-19T13:36:10.183Z,6.10
2018-04-19T13:38:37.734Z,6.90
2018-04-19T13:41:05.284Z,6.83
2018-04-19T13:43:32.983Z,6.83
2018-04-19T13:46:00.564Z,6.83
2018-04-19T13:48:28.908Z,8.60
2018-04-19T13:50:56.440Z,8.07
2018-04-19T13:53:23.986Z,7.97
2018-04-19T13:55:51.528Z,7.20
2018-04-19T13:58:19.066Z,7.33
2018-04-19T14:00:46.577Z,6.67
2018-04-19T14:03:14.192Z,6.20
2018-04-19T14:05:41.749Z,6.50
2018-04-19T14:08:09.338Z,5.97
2018-04-19T14:10:36.897Z,5.97
2018-04-19T14:13:05.274Z,5.40
2018-04-19T14:15:33.591Z,5.73
2018-04-19T14:18:01.120Z,4.13
2018-04-19T14:20:28.654Z,4.20
2018-04-19T14:22:56.205Z,5.33
2018-04-19T14:25:23.782Z,4.73
2018-04-19T14:27:51.336Z,4.73
2018-04-19T14:30:18.882Z,5.30
2018-04-19T14:32:46.458Z,4.47
2018-04-19T14:35:14.001Z,4.20
2018-04-19T14:37:41.542Z,4.37
2018-04-19T14:40:09.151Z,4.07
2018-04-19T14:42:36.693Z,3.20
2018-04-19T14:45:05.957Z,3.57
2018-04-19T14:47:33.530Z,3.73
2018-04-19T14:50:01.060Z,3.80
2018-04-19T14:52:28.684Z,3.80
2018-04-19T14:54:56.240Z,3.87
2018-04-19T14:57:23.818Z,3.23
2018-04-19T14:59:51.355Z,3.80
2018-04-19T15:02:19.657Z,3.83
2018-04-19T15:04:47.187Z,3.50
2018-04-19T15:07:15.592Z,3.77
2018-04-19T15:09:43.218Z,3.30
2018-04-19T15:12:11.564Z,3.17
2018-04-19T15:14:39.156Z,3.53
2018-04-19T15:17:07.432Z,3.77
2018-04-19T15:19:35.746Z,4.00
2018-04-19T15:22:03.296Z,3.97
2018-04-19T15:24:30.821Z,3.60
2018-04-19T15:26:59.174Z,4.17
2018-04-19T15:29:26.707Z,4.03
2018-04-19T15:31:54.290Z,3.47
2018-04-19T15:34:22.597Z,3.50
2018-04-19T15:36:50.185Z,3.27
2018-04-19T15:39:17.767Z,3.07
2018-04-19T15:41:45.287Z,3.03
2018-04-19T15:44:12.852Z,3.03
2018-04-19T15:46:40.402Z,2.70
2018-04-19T15:49:07.928Z,2.83
2018-04-19T15:51:35.492Z,3.07
2018-04-19T15:54:03.028Z,2.87
2018-04-19T15:56:30.604Z,2.40
2018-04-19T15:58:58.229Z,2.60
2018-04-19T16:01:25.779Z,2.87
2018-04-19T16:03:53.340Z,2.23
2018-04-19T16:06:20.903Z,2.60
2018-04-19T16:08:48.479Z,2.87
2018-04-19T16:11:16.132Z,2.53
2018-04-19T16:13:44.434Z,2.17
2018-04-19T16:16:12.039Z,2.47
2018-04-19T16:18:40.342Z,2.67
2018-04-19T16:21:07.945Z,2.73
2018-04-19T16:23:35.477Z,2.77
2018-04-19T16:26:03.020Z,4.03
2018-04-19T16:28:30.573Z,2.40
2018-04-19T16:30:58.179Z,2.80
2018-04-19T16:33:25.739Z,2.60
2018-04-19T16:35:54.248Z,2.67
2018-04-19T16:38:22.574Z,2.60
2018-04-19T16:40:50.122Z,2.67
2018-04-19T16:43:17.652Z,2.67
2018-04-19T16:45:45.249Z,2.67
2018-04-19T16:48:12.789Z,2.47
2018-04-19T16:50:40.323Z,2.23
2018-04-19T16:53:07.873Z,2.63
2018-04-19T16:55:36.173Z,3.13
2018-04-19T16:58:03.812Z,2.57
2018-04-19T17:00:32.113Z,2.57
2018-04-19T17:02:59.737Z,2.40
2018-04-19T17:05:27.270Z,2.30
2018-04-19T17:07:54.816Z,2.20
2018-04-19T17:10:22.385Z,2.03
2018-04-19T17:12:50.686Z,2.20
2018-04-19T17:15:18.288Z,2.13
2018-04-19T17:17:45.833Z,2.50
2018-04-19T17:20:13.374Z,2.27
2018-04-19T17:22:41.660Z,2.33
2018-04-19T17:25:10.006Z,2.60
2018-04-19T17:27:38.860Z,2.40
2018-04-19T17:30:06.411Z,2.77
2018-04-19T17:32:33.985Z,2.67
2018-04-19T17:35:01.524Z,2.43
2018-04-19T17:37:29.073Z,2.10
2018-04-19T17:39:56.641Z,2.00
2018-04-19T17:42:24.149Z,2.43
2018-04-19T17:44:51.710Z,2.60
2018-04-19T17:47:20.453Z,3.33
2018-04-19T17:49:47.992Z,2.87
2018-04-19T17:52:15.508Z,2.70
2018-04-19T17:54:43.086Z,3.80
2018-04-19T17:57:10.622Z,4.53
2018-04-19T17:59:38.302Z,4.10
2018-04-19T18:02:05.828Z,3.57
2018-04-19T18:04:33.362Z,4.03
2018-04-19T18:07:00.934Z,3.47
2018-04-19T18:09:28.498Z,4.27
2018-04-19T18:11:56.049Z,3.40
2018-04-19T18:14:23.560Z,3.27
2018-04-19T18:16:52.844Z,3.00
2018-04-19T18:19:20.541Z,4.10
2018-04-19T18:21:48.971Z,6.03
2018-04-19T18:24:16.623Z,3.67
2018-04-19T18:26:44.363Z,3.30
2018-04-19T18:29:11.984Z,3.30
2018-04-19T18:31:39.646Z,3.43
2018-04-19T18:34:07.993Z,3.67
2018-04-19T18:36:35.718Z,3.33
2018-04-19T18:39:03.412Z,2.80
2018-04-19T18:41:31.008Z,3.60
2018-04-19T18:43:58.587Z,4.17
2018-04-19T18:46:26.128Z,4.03
2018-04-19T18:48:53.669Z,4.47
2018-04-19T18:51:21.230Z,3.90
2018-04-19T18:53:48.896Z,4.77
2018-04-19T18:56:16.450Z,4.00
2018-04-19T18:58:44.039Z,3.60
2018-04-19T19:01:12.345Z,4.27
2018-04-19T19:03:39.956Z,4.43
2018-04-19T19:06:07.469Z,4.43
2018-04-19T19:08:35.015Z,4.97
2018-04-19T19:11:02.605Z,5.30
2018-04-19T19:13:31.842Z,4.60
2018-04-19T19:16:14.627Z,4.33
2018-04-19T19:18:54.279Z,4.60
2018-04-19T19:21:21.905Z,5.03
2018-04-19T19:23:50.363Z,4.63
2018-04-19T19:26:17.898Z,5.00
2018-04-19T19:28:46.191Z,5.60
2018-04-19T19:31:13.796Z,4.90
2018-04-19T19:33:41.300Z,5.33
2018-04-19T19:36:09.604Z,5.13
2018-04-19T19:38:37.187Z,5.20
2018-04-19T19:41:04.725Z,5.83
2018-04-19T19:43:32.282Z,5.23
2018-04-19T19:45:59.850Z,5.03
2018-04-19T19:48:27.404Z,6.13
2018-04-19T19:50:54.926Z,5.57
2018-04-19T19:53:22.554Z,4.50
2018-04-19T19:55:50.184Z,5.27
2018-04-19T19:58:17.736Z,5.67
2018-04-19T20:00:45.309Z,4.83
2018-04-19T20:03:12.909Z,4.63
2018-04-19T20:05:40.474Z,4.47
2018-04-19T20:08:08.007Z,5.60
2018-04-19T20:10:35.639Z,4.43
2018-04-19T20:13:03.190Z,5.53
2018-04-19T20:15:30.715Z,5.43
2018-04-19T20:17:59.045Z,5.13
2018-04-19T20:20:26.580Z,5.63
2018-04-19T20:22:54.163Z,5.30
2018-04-19T20:25:21.735Z,5.10
2018-04-19T20:27:49.285Z,5.50
2018-04-19T20:30:16.841Z,5.20
2018-04-19T20:32:44.407Z,5.60
2018-04-19T20:35:11.947Z,5.17
2018-04-19T20:37:39.476Z,4.63
2018-04-19T20:40:07.034Z,5.20
2018-04-19T20:42:34.576Z,4.60
2018-04-19T20:45:02.945Z,4.67
2018-04-19T20:47:30.462Z,4.87
2018-04-19T20:49:58.022Z,4.53
2018-04-19T20:52:25.554Z,4.73
2018-04-19T20:54:54.465Z,5.00
2018-04-19T20:57:22.018Z,4.87
2018-04-19T20:59:49.616Z,5.27
2018-04-19T21:02:17.155Z,5.00
2018-04-19T21:04:44.744Z,5.53
2018-04-19T21:07:12.325Z,5.90
2018-04-19T21:09:40.649Z,6.10
2018-04-19T21:12:08.173Z,5.27
2018-04-19T21:14:36.509Z,5.60
2018-04-19T21:17:04.085Z,5.17
2018-04-19T21:19:31.608Z,5.70
2018-04-19T21:21:59.155Z,4.97
2018-04-19T21:24:26.717Z,5.33
2018-04-19T21:26:54.281Z,6.17
2018-04-19T21:29:21.814Z,6.10
2018-04-19T21:31:49.483Z,5.40
2018-04-19T21:34:17.043Z,6.03
2018-04-19T21:36:44.648Z,6.10
2018-04-19T21:39:12.174Z,6.00
2018-04-19T21:41:39.694Z,6.00
2018-04-19T21:44:08.022Z,6.27
2018-04-19T21:46:35.572Z,6.60
2018-04-19T21:49:03.160Z,6.40
2018-04-19T21:51:30.698Z,6.77
2018-04-19T21:53:58.997Z,6.60
2018-04-19T21:56:26.511Z,7.27
2018-04-19T21:58:54.484Z,6.50
2018-04-19T22:01:22.009Z,7.63
2018-04-19T22:03:50.325Z,6.60
2018-04-19T22:06:17.863Z,6.37
2018-04-19T22:08:45.459Z,6.30
2018-04-19T22:11:12.959Z,6.70
2018-04-19T22:13:40.831Z,6.67
2018-04-19T22:16:08.385Z,6.00
2018-04-19T22:18:36.673Z,7.10
2018-04-19T22:21:04.215Z,7.27
2018-04-19T22:23:32.479Z,6.90
2018-04-19T22:26:00.248Z,8.37
2018-04-19T22:28:27.748Z,7.57
2018-04-19T22:30:56.329Z,6.63
2018-04-19T22:33:23.945Z,6.70
2018-04-19T22:35:51.477Z,6.90
2018-04-19T22:38:19.065Z,7.73
2018-04-19T22:40:46.565Z,7.43
2018-04-19T22:43:14.114Z,7.47
2018-04-19T22:45:41.658Z,7.57
2018-04-19T22:48:09.971Z,7.93
2018-04-19T22:50:37.541Z,7.40
2018-04-19T22:53:05.820Z,7.93
2018-04-19T22:55:33.369Z,7.73
2018-04-19T22:58:00.891Z,8.00
2018-04-19T23:00:29.211Z,7.50
2018-04-19T23:02:56.775Z,7.63
2018-04-19T23:05:24.306Z,8.13
2018-04-19T23:07:51.813Z,7.90
2018-04-19T23:10:19.373Z,7.63
2018-04-19T23:12:46.898Z,7.50
2018-04-19T23:15:14.428Z,7.70
2018-04-19T23:17:41.979Z,8.50
2018-04-19T23:20:10.266Z,7.60
2018-04-19T23:22:37.803Z,8.40
2018-04-19T23:25:06.091Z,8.67
2018-04-19T23:27:34.405Z,8.47
2018-04-19T23:30:02.050Z,8.70
2018-04-19T23:32:29.622Z,9.20
2018-04-19T23:34:57.180Z,8.53
2018-04-19T23:37:24.709Z,10.00
2018-04-19T23:39:53.015Z,9.17
2018-04-19T23:42:20.541Z,9.67
2018-04-19T23:44:48.833Z,8.97
2018-04-19T23:47:16.356Z,9.37
2018-04-19T23:49:43.897Z,9.27
2018-04-19T23:52:11.402Z,8.43
2018-04-19T23:54:38.957Z,10.33
2018-04-19T23:57:06.492Z,9.00
2018-04-19T23:59:34.790Z,9.47
